sensor_id;sensor_type;location;lat;lon;timestamp;temperature;humidity
4813;DHT22;2420;51.202;8.698;2023-10-31T00:00:02;11.50;1.00
4813;DHT22;2420;51.202;8.698;2023-10-31T00:02:29;11.50;1.00
4813;DHT22;2420;51.202;8.698;2023-10-31T00:04:54;11.50;1.00
4813;DHT22;2420;51.202;8.698;2023-10-31T00:07:20;11.50;1.00
4813;DHT22;2420;51.202;8.698;2023-10-31T00:09:45;11.50;1.00
4813;DHT22;2420;51.202;8.698;2023-10-31T00:12:11;11.50;1.00
4813;DHT22;2420;51.202;8.698;2023-10-31T00:14:37;11.50;1.00
4813;DHT22;2420;51.202;8.698;2023-10-31T00:17:04;11.50;1.00
4813;DHT22;2420;51.202;8.698;2023-10-31T00:19:29;11.50;1.00
4813;DHT22;2420;51.202;8.698;2023-10-31T00:21:55;11.50;1.00
4813;DHT22;2420;51.202;8.698;2023-10-31T00:24:20;11.50;1.00
4813;DHT22;2420;51.202;8.698;2023-10-31T00:26:46;11.50;1.00
4813;DHT22;2420;51.202;8.698;2023-10-31T00:29:12;11.40;1.00
4813;DHT22;2420;51.202;8.698;2023-10-31T00:31:37;11.40;1.00
4813;DHT22;2420;51.202;8.698;2023-10-31T00:34:06;11.40;1.00
4813;DHT22;2420;51.202;8.698;2023-10-31T00:36:33;11.40;1.00
4813;DHT22;2420;51.202;8.698;2023-10-31T00:38:58;11.40;1.00
4813;DHT22;2420;51.202;8.698;2023-10-31T00:41:24;11.40;1.00
4813;DHT22;2420;51.202;8.698;2023-10-31T00:43:49;11.40;1.00
4813;DHT22;2420;51.202;8.698;2023-10-31T00:46:15;11.40;1.00
4813;DHT22;2420;51.202;8.698;2023-10-31T00:48:40;11.40;1.00
4813;DHT22;2420;51.202;8.698;2023-10-31T00:51:06;11.40;1.00
4813;DHT22;2420;51.202;8.698;2023-10-31T00:53:32;11.30;1.00
4813;DHT22;2420;51.202;8.698;2023-10-31T00:55:57;11.30;1.00
4813;DHT22;2420;51.202;8.698;2023-10-31T00:58:23;11.30;1.00
4813;DHT22;2420;51.202;8.698;2023-10-31T01:00:49;11.30;1.00
4813;DHT22;2420;51.202;8.698;2023-10-31T01:03:14;11.40;1.00
4813;DHT22;2420;51.202;8.698;2023-10-31T01:05:40;11.30;1.00
4813;DHT22;2420;51.202;8.698;2023-10-31T01:08:05;11.30;1.00
4813;DHT22;2420;51.202;8.698;2023-10-31T01:10:31;11.20;1.00
4813;DHT22;2420;51.202;8.698;2023-10-31T01:12:57;11.10;1.00
4813;DHT22;2420;51.202;8.698;2023-10-31T01:15:22;11.00;1.00
4813;DHT22;2420;51.202;8.698;2023-10-31T01:17:48;11.00;1.00
4813;DHT22;2420;51.202;8.698;2023-10-31T01:20:14;10.90;1.00
4813;DHT22;2420;51.202;8.698;2023-10-31T01:22:39;10.90;1.00
4813;DHT22;2420;51.202;8.698;2023-10-31T01:25:05;10.70;1.00
4813;DHT22;2420;51.202;8.698;2023-10-31T01:27:31;10.60;1.00
4813;DHT22;2420;51.202;8.698;2023-10-31T01:29:56;10.60;1.00
4813;DHT22;2420;51.202;8.698;2023-10-31T01:32:22;10.50;1.00
4813;DHT22;2420;51.202;8.698;2023-10-31T01:34:48;10.40;1.00
4813;DHT22;2420;51.202;8.698;2023-10-31T01:37:13;10.30;1.00
4813;DHT22;2420;51.202;8.698;2023-10-31T01:39:40;10.30;1.00
4813;DHT22;2420;51.202;8.698;2023-10-31T01:42:06;10.20;1.00
4813;DHT22;2420;51.202;8.698;2023-10-31T01:44:32;10.10;1.00
4813;DHT22;2420;51.202;8.698;2023-10-31T01:46:57;10.10;1.00
4813;DHT22;2420;51.202;8.698;2023-10-31T01:49:23;10.00;1.00
4813;DHT22;2420;51.202;8.698;2023-10-31T01:51:50;10.00;1.00
4813;DHT22;2420;51.202;8.698;2023-10-31T01:54:16;9.90;1.00
4813;DHT22;2420;51.202;8.698;2023-10-31T01:56:42;9.90;1.00
4813;DHT22;2420;51.202;8.698;2023-10-31T01:59:09;9.90;1.00
4813;DHT22;2420;51.202;8.698;2023-10-31T02:01:41;9.90;1.00
4813;DHT22;2420;51.202;8.698;2023-10-31T02:04:07;9.80;1.00
4813;DHT22;2420;51.202;8.698;2023-10-31T02:06:32;9.90;1.00
4813;DHT22;2420;51.202;8.698;2023-10-31T02:08:58;9.90;1.00
4813;DHT22;2420;51.202;8.698;2023-10-31T02:11:23;9.90;1.00
4813;DHT22;2420;51.202;8.698;2023-10-31T02:13:49;10.00;1.00
4813;DHT22;2420;51.202;8.698;2023-10-31T02:16:14;9.90;1.00
4813;DHT22;2420;51.202;8.698;2023-10-31T02:18:40;9.90;1.00
4813;DHT22;2420;51.202;8.698;2023-10-31T02:21:06;9.90;1.00
4813;DHT22;2420;51.202;8.698;2023-10-31T02:23:32;9.90;1.00
4813;DHT22;2420;51.202;8.698;2023-10-31T02:25:57;9.80;1.00
4813;DHT22;2420;51.202;8.698;2023-10-31T02:28:23;9.80;1.00
4813;DHT22;2420;51.202;8.698;2023-10-31T02:30:53;9.70;1.00
4813;DHT22;2420;51.202;8.698;2023-10-31T02:33:20;9.70;1.00
4813;DHT22;2420;51.202;8.698;2023-10-31T02:35:45;9.70;1.00
4813;DHT22;2420;51.202;8.698;2023-10-31T02:38:11;9.70;1.00
4813;DHT22;2420;51.202;8.698;2023-10-31T02:40:36;9.70;1.00
4813;DHT22;2420;51.202;8.698;2023-10-31T02:43:02;9.60;1.00
4813;DHT22;2420;51.202;8.698;2023-10-31T02:45:30;9.60;1.00
4813;DHT22;2420;51.202;8.698;2023-10-31T02:47:56;9.60;1.00
4813;DHT22;2420;51.202;8.698;2023-10-31T02:50:21;9.70;1.00
4813;DHT22;2420;51.202;8.698;2023-10-31T02:52:47;9.70;1.00
4813;DHT22;2420;51.202;8.698;2023-10-31T02:55:12;9.70;1.00
4813;DHT22;2420;51.202;8.698;2023-10-31T02:57:38;9.60;1.00
4813;DHT22;2420;51.202;8.698;2023-10-31T03:00:04;9.60;1.00
4813;DHT22;2420;51.202;8.698;2023-10-31T03:02:30;9.60;1.00
4813;DHT22;2420;51.202;8.698;2023-10-31T03:04:56;9.60;1.00
4813;DHT22;2420;51.202;8.698;2023-10-31T03:07:21;9.70;1.00
4813;DHT22;2420;51.202;8.698;2023-10-31T03:09:47;9.60;1.00
4813;DHT22;2420;51.202;8.698;2023-10-31T03:12:12;9.60;1.00
4813;DHT22;2420;51.202;8.698;2023-10-31T03:14:38;9.60;1.00
4813;DHT22;2420;51.202;8.698;2023-10-31T03:17:03;9.50;1.00
4813;DHT22;2420;51.202;8.698;2023-10-31T03:19:29;9.60;1.00
4813;DHT22;2420;51.202;8.698;2023-10-31T03:21:54;9.60;1.00
4813;DHT22;2420;51.202;8.698;2023-10-31T03:24:20;9.60;1.00
4813;DHT22;2420;51.202;8.698;2023-10-31T03:26:45;9.60;1.00
4813;DHT22;2420;51.202;8.698;2023-10-31T03:29:11;9.60;1.00
4813;DHT22;2420;51.202;8.698;2023-10-31T03:31:37;9.60;1.00
4813;DHT22;2420;51.202;8.698;2023-10-31T03:34:02;9.60;1.00
4813;DHT22;2420;51.202;8.698;2023-10-31T03:36:28;9.60;1.00
4813;DHT22;2420;51.202;8.698;2023-10-31T03:38:53;9.60;1.00
4813;DHT22;2420;51.202;8.698;2023-10-31T03:41:19;9.60;1.00
4813;DHT22;2420;51.202;8.698;2023-10-31T03:43:44;9.50;1.00
4813;DHT22;2420;51.202;8.698;2023-10-31T03:46:11;9.50;1.00
4813;DHT22;2420;51.202;8.698;2023-10-31T03:48:39;9.40;1.00
4813;DHT22;2420;51.202;8.698;2023-10-31T03:51:05;9.40;1.00
4813;DHT22;2420;51.202;8.698;2023-10-31T03:53:30;9.40;1.00
4813;DHT22;2420;51.202;8.698;2023-10-31T03:55:59;9.30;1.00
4813;DHT22;2420;51.202;8.698;2023-10-31T03:58:25;9.20;1.00
4813;DHT22;2420;51.202;8.698;2023-10-31T04:00:50;9.20;1.00
4813;DHT22;2420;51.202;8.698;2023-10-31T04:03:16;9.20;1.00
4813;DHT22;2420;51.202;8.698;2023-10-31T04:05:41;9.20;1.00
4813;DHT22;2420;51.202;8.698;2023-10-31T04:08:07;9.20;1.00
4813;DHT22;2420;51.202;8.698;2023-10-31T04:10:32;9.20;1.00
4813;DHT22;2420;51.202;8.698;2023-10-31T04:12:58;9.30;1.00
4813;DHT22;2420;51.202;8.698;2023-10-31T04:15:24;9.30;1.00
4813;DHT22;2420;51.202;8.698;2023-10-31T04:17:49;9.20;1.00
4813;DHT22;2420;51.202;8.698;2023-10-31T04:20:15;9.20;1.00
4813;DHT22;2420;51.202;8.698;2023-10-31T04:22:40;9.20;1.00
4813;DHT22;2420;51.202;8.698;2023-10-31T04:25:06;9.20;1.00
4813;DHT22;2420;51.202;8.698;2023-10-31T04:27:32;9.20;1.00
4813;DHT22;2420;51.202;8.698;2023-10-31T04:29:57;9.20;1.00
4813;DHT22;2420;51.202;8.698;2023-10-31T04:32:23;9.20;1.00
4813;DHT22;2420;51.202;8.698;2023-10-31T04:34:49;9.20;1.00
4813;DHT22;2420;51.202;8.698;2023-10-31T04:37:17;9.20;1.00
4813;DHT22;2420;51.202;8.698;2023-10-31T04:39:43;9.20;1.00
4813;DHT22;2420;51.202;8.698;2023-10-31T04:42:08;9.30;1.00
4813;DHT22;2420;51.202;8.698;2023-10-31T04:44:34;9.20;1.00
4813;DHT22;2420;51.202;8.698;2023-10-31T04:46:59;9.20;1.00
4813;DHT22;2420;51.202;8.698;2023-10-31T04:49:25;9.10;1.00
4813;DHT22;2420;51.202;8.698;2023-10-31T04:51:50;9.20;1.00
4813;DHT22;2420;51.202;8.698;2023-10-31T04:54:16;9.10;1.00
4813;DHT22;2420;51.202;8.698;2023-10-31T04:56:42;9.10;1.00
4813;DHT22;2420;51.202;8.698;2023-10-31T04:59:07;9.10;1.00
4813;DHT22;2420;51.202;8.698;2023-10-31T05:01:33;9.10;1.00
4813;DHT22;2420;51.202;8.698;2023-10-31T05:03:58;9.00;1.00
4813;DHT22;2420;51.202;8.698;2023-10-31T05:06:24;9.10;1.00
4813;DHT22;2420;51.202;8.698;2023-10-31T05:08:49;9.10;1.00
4813;DHT22;2420;51.202;8.698;2023-10-31T05:11:18;9.20;1.00
4813;DHT22;2420;51.202;8.698;2023-10-31T05:13:45;9.10;1.00
4813;DHT22;2420;51.202;8.698;2023-10-31T05:16:10;9.10;1.00
4813;DHT22;2420;51.202;8.698;2023-10-31T05:18:38;9.20;1.00
4813;DHT22;2420;51.202;8.698;2023-10-31T05:21:04;9.10;1.00
4813;DHT22;2420;51.202;8.698;2023-10-31T05:23:30;9.10;1.00
4813;DHT22;2420;51.202;8.698;2023-10-31T05:25:55;9.10;1.00
4813;DHT22;2420;51.202;8.698;2023-10-31T05:28:21;9.10;1.00
4813;DHT22;2420;51.202;8.698;2023-10-31T05:30:46;9.10;1.00
4813;DHT22;2420;51.202;8.698;2023-10-31T05:33:17;9.10;1.00
4813;DHT22;2420;51.202;8.698;2023-10-31T05:35:43;9.00;1.00
4813;DHT22;2420;51.202;8.698;2023-10-31T05:38:08;9.10;1.00
4813;DHT22;2420;51.202;8.698;2023-10-31T05:40:34;9.10;1.00
4813;DHT22;2420;51.202;8.698;2023-10-31T05:43:02;9.10;1.00
4813;DHT22;2420;51.202;8.698;2023-10-31T05:45:28;9.10;1.00
4813;DHT22;2420;51.202;8.698;2023-10-31T05:47:54;9.00;1.00
4813;DHT22;2420;51.202;8.698;2023-10-31T05:50:19;9.00;1.00
4813;DHT22;2420;51.202;8.698;2023-10-31T05:52:45;9.00;1.00
4813;DHT22;2420;51.202;8.698;2023-10-31T05:55:10;9.00;1.00
4813;DHT22;2420;51.202;8.698;2023-10-31T05:57:36;8.90;1.00
4813;DHT22;2420;51.202;8.698;2023-10-31T06:00:02;8.90;1.00
4813;DHT22;2420;51.202;8.698;2023-10-31T06:02:27;8.90;1.00
4813;DHT22;2420;51.202;8.698;2023-10-31T06:04:55;8.90;1.00
4813;DHT22;2420;51.202;8.698;2023-10-31T06:07:20;8.90;1.00
4813;DHT22;2420;51.202;8.698;2023-10-31T06:09:46;8.90;1.00
4813;DHT22;2420;51.202;8.698;2023-10-31T06:12:11;8.90;1.00
4813;DHT22;2420;51.202;8.698;2023-10-31T06:14:37;8.80;1.00
4813;DHT22;2420;51.202;8.698;2023-10-31T06:17:03;8.80;1.00
4813;DHT22;2420;51.202;8.698;2023-10-31T06:19:32;8.80;1.00
4813;DHT22;2420;51.202;8.698;2023-10-31T06:21:58;8.90;1.00
4813;DHT22;2420;51.202;8.698;2023-10-31T06:24:23;8.90;1.00
4813;DHT22;2420;51.202;8.698;2023-10-31T06:26:49;8.90;1.00
4813;DHT22;2420;51.202;8.698;2023-10-31T06:29:14;8.90;1.00
4813;DHT22;2420;51.202;8.698;2023-10-31T06:31:40;8.90;1.00
4813;DHT22;2420;51.202;8.698;2023-10-31T06:34:06;8.90;1.00
4813;DHT22;2420;51.202;8.698;2023-10-31T06:36:32;8.80;1.00
4813;DHT22;2420;51.202;8.698;2023-10-31T06:38:57;8.90;1.00
4813;DHT22;2420;51.202;8.698;2023-10-31T06:41:24;8.90;1.00
4813;DHT22;2420;51.202;8.698;2023-10-31T06:43:49;8.90;1.00
4813;DHT22;2420;51.202;8.698;2023-10-31T06:46:15;8.90;1.00
4813;DHT22;2420;51.202;8.698;2023-10-31T06:48:41;8.90;1.00
4813;DHT22;2420;51.202;8.698;2023-10-31T06:51:07;9.00;1.00
4813;DHT22;2420;51.202;8.698;2023-10-31T06:53:32;9.00;1.00
4813;DHT22;2420;51.202;8.698;2023-10-31T06:55:58;9.10;1.00
4813;DHT22;2420;51.202;8.698;2023-10-31T06:58:23;9.10;1.00
4813;DHT22;2420;51.202;8.698;2023-10-31T07:00:49;9.10;1.00
4813;DHT22;2420;51.202;8.698;2023-10-31T07:03:15;9.10;1.00
4813;DHT22;2420;51.202;8.698;2023-10-31T07:05:41;9.10;1.00
4813;DHT22;2420;51.202;8.698;2023-10-31T07:08:07;9.10;1.00
4813;DHT22;2420;51.202;8.698;2023-10-31T07:10:33;9.10;1.00
4813;DHT22;2420;51.202;8.698;2023-10-31T07:12:59;9.00;1.00
4813;DHT22;2420;51.202;8.698;2023-10-31T07:15:25;9.00;1.00
4813;DHT22;2420;51.202;8.698;2023-10-31T07:17:51;9.00;1.00
4813;DHT22;2420;51.202;8.698;2023-10-31T07:20:16;9.00;1.00
4813;DHT22;2420;51.202;8.698;2023-10-31T07:22:42;9.10;1.00
4813;DHT22;2420;51.202;8.698;2023-10-31T07:25:08;9.10;1.00
4813;DHT22;2420;51.202;8.698;2023-10-31T07:27:34;9.20;1.00
4813;DHT22;2420;51.202;8.698;2023-10-31T07:29:59;9.20;1.00
4813;DHT22;2420;51.202;8.698;2023-10-31T07:32:25;9.20;1.00
4813;DHT22;2420;51.202;8.698;2023-10-31T07:34:51;9.20;1.00
4813;DHT22;2420;51.202;8.698;2023-10-31T07:37:17;9.20;1.00
4813;DHT22;2420;51.202;8.698;2023-10-31T07:39:42;9.20;1.00
4813;DHT22;2420;51.202;8.698;2023-10-31T07:42:08;9.20;1.00
4813;DHT22;2420;51.202;8.698;2023-10-31T07:44:34;9.20;1.00
4813;DHT22;2420;51.202;8.698;2023-10-31T07:47:00;9.30;1.00
4813;DHT22;2420;51.202;8.698;2023-10-31T07:49:25;9.30;1.00
4813;DHT22;2420;51.202;8.698;2023-10-31T07:51:51;9.30;1.00
4813;DHT22;2420;51.202;8.698;2023-10-31T07:54:17;9.40;1.00
4813;DHT22;2420;51.202;8.698;2023-10-31T07:56:42;9.40;1.00
4813;DHT22;2420;51.202;8.698;2023-10-31T07:59:08;9.40;1.00
4813;DHT22;2420;51.202;8.698;2023-10-31T08:01:34;9.50;1.00
4813;DHT22;2420;51.202;8.698;2023-10-31T08:04:00;9.50;1.00
4813;DHT22;2420;51.202;8.698;2023-10-31T08:06:26;9.50;1.00
4813;DHT22;2420;51.202;8.698;2023-10-31T08:08:51;9.40;1.00
4813;DHT22;2420;51.202;8.698;2023-10-31T08:11:17;9.40;1.00
4813;DHT22;2420;51.202;8.698;2023-10-31T08:13:43;9.50;1.00
4813;DHT22;2420;51.202;8.698;2023-10-31T08:16:09;9.50;1.00
4813;DHT22;2420;51.202;8.698;2023-10-31T08:18:35;9.50;1.00
4813;DHT22;2420;51.202;8.698;2023-10-31T08:21:01;9.40;1.00
4813;DHT22;2420;51.202;8.698;2023-10-31T08:23:28;9.50;1.00
4813;DHT22;2420;51.202;8.698;2023-10-31T08:25:53;9.50;1.00
4813;DHT22;2420;51.202;8.698;2023-10-31T08:28:19;9.60;1.00
4813;DHT22;2420;51.202;8.698;2023-10-31T08:30:45;9.60;1.00
4813;DHT22;2420;51.202;8.698;2023-10-31T08:33:11;9.60;1.00
4813;DHT22;2420;51.202;8.698;2023-10-31T08:35:37;9.60;1.00
4813;DHT22;2420;51.202;8.698;2023-10-31T08:38:03;9.60;1.00
4813;DHT22;2420;51.202;8.698;2023-10-31T08:40:28;9.60;1.00
4813;DHT22;2420;51.202;8.698;2023-10-31T08:42:54;9.60;1.00
4813;DHT22;2420;51.202;8.698;2023-10-31T08:45:20;9.70;1.00
4813;DHT22;2420;51.202;8.698;2023-10-31T08:47:46;9.70;1.00
4813;DHT22;2420;51.202;8.698;2023-10-31T08:50:11;9.60;1.00
4813;DHT22;2420;51.202;8.698;2023-10-31T08:52:37;9.70;1.00
4813;DHT22;2420;51.202;8.698;2023-10-31T08:55:03;9.80;1.00
4813;DHT22;2420;51.202;8.698;2023-10-31T08:57:29;9.80;1.00
4813;DHT22;2420;51.202;8.698;2023-10-31T08:59:55;9.80;1.00
4813;DHT22;2420;51.202;8.698;2023-10-31T09:02:21;9.80;1.00
4813;DHT22;2420;51.202;8.698;2023-10-31T09:04:46;9.90;1.00
4813;DHT22;2420;51.202;8.698;2023-10-31T09:07:12;9.90;1.00
4813;DHT22;2420;51.202;8.698;2023-10-31T09:09:37;9.90;1.00
4813;DHT22;2420;51.202;8.698;2023-10-31T09:12:03;10.00;1.00
4813;DHT22;2420;51.202;8.698;2023-10-31T09:14:32;10.10;1.00
4813;DHT22;2420;51.202;8.698;2023-10-31T09:16:57;10.10;1.00
4813;DHT22;2420;51.202;8.698;2023-10-31T09:19:23;10.20;1.00
4813;DHT22;2420;51.202;8.698;2023-10-31T09:21:48;10.20;1.00
4813;DHT22;2420;51.202;8.698;2023-10-31T09:24:14;10.20;1.00
4813;DHT22;2420;51.202;8.698;2023-10-31T09:26:43;10.30;1.00
4813;DHT22;2420;51.202;8.698;2023-10-31T09:29:10;10.30;1.00
4813;DHT22;2420;51.202;8.698;2023-10-31T09:31:35;10.30;1.00
4813;DHT22;2420;51.202;8.698;2023-10-31T09:34:01;10.20;1.00
4813;DHT22;2420;51.202;8.698;2023-10-31T09:36:31;10.20;1.00
4813;DHT22;2420;51.202;8.698;2023-10-31T09:38:57;10.20;1.00
4813;DHT22;2420;51.202;8.698;2023-10-31T09:41:22;10.20;1.00
4813;DHT22;2420;51.202;8.698;2023-10-31T09:43:48;10.20;1.00
4813;DHT22;2420;51.202;8.698;2023-10-31T09:46:16;10.20;1.00
4813;DHT22;2420;51.202;8.698;2023-10-31T09:48:43;10.20;1.00
4813;DHT22;2420;51.202;8.698;2023-10-31T09:51:09;10.30;1.00
4813;DHT22;2420;51.202;8.698;2023-10-31T09:53:37;10.30;1.00
4813;DHT22;2420;51.202;8.698;2023-10-31T09:56:04;10.40;1.00
4813;DHT22;2420;51.202;8.698;2023-10-31T09:58:30;10.40;1.00
4813;DHT22;2420;51.202;8.698;2023-10-31T10:00:58;10.50;1.00
4813;DHT22;2420;51.202;8.698;2023-10-31T10:03:24;10.70;1.00
4813;DHT22;2420;51.202;8.698;2023-10-31T10:05:50;10.80;1.00
4813;DHT22;2420;51.202;8.698;2023-10-31T10:08:15;10.70;1.00
4813;DHT22;2420;51.202;8.698;2023-10-31T10:10:41;10.80;1.00
4813;DHT22;2420;51.202;8.698;2023-10-31T10:13:07;11.00;1.00
4813;DHT22;2420;51.202;8.698;2023-10-31T10:15:50;11.20;1.00
4813;DHT22;2420;51.202;8.698;2023-10-31T10:18:26;11.20;1.00
4813;DHT22;2420;51.202;8.698;2023-10-31T10:20:56;11.20;1.00
4813;DHT22;2420;51.202;8.698;2023-10-31T10:23:23;11.20;1.00
4813;DHT22;2420;51.202;8.698;2023-10-31T10:25:49;11.20;1.00
4813;DHT22;2420;51.202;8.698;2023-10-31T10:28:15;11.40;1.00
4813;DHT22;2420;51.202;8.698;2023-10-31T10:30:40;11.50;1.00
4813;DHT22;2420;51.202;8.698;2023-10-31T10:33:06;11.40;1.00
4813;DHT22;2420;51.202;8.698;2023-10-31T10:35:32;11.30;1.00
4813;DHT22;2420;51.202;8.698;2023-10-31T10:37:59;11.30;1.00
4813;DHT22;2420;51.202;8.698;2023-10-31T10:40:26;11.30;1.00
4813;DHT22;2420;51.202;8.698;2023-10-31T10:42:56;11.30;1.00
4813;DHT22;2420;51.202;8.698;2023-10-31T10:45:25;11.40;1.00
4813;DHT22;2420;51.202;8.698;2023-10-31T10:47:52;11.40;1.00
4813;DHT22;2420;51.202;8.698;2023-10-31T10:50:19;11.40;1.00
4813;DHT22;2420;51.202;8.698;2023-10-31T10:53:07;11.30;1.00
4813;DHT22;2420;51.202;8.698;2023-10-31T10:55:42;11.20;1.00
4813;DHT22;2420;51.202;8.698;2023-10-31T11:00:49;11.00;1.00
4813;DHT22;2420;51.202;8.698;2023-10-31T11:03:17;11.00;1.00
4813;DHT22;2420;51.202;8.698;2023-10-31T11:05:45;11.10;1.00
4813;DHT22;2420;51.202;8.698;2023-10-31T11:08:11;11.20;1.00
4813;DHT22;2420;51.202;8.698;2023-10-31T11:10:37;11.30;1.00
4813;DHT22;2420;51.202;8.698;2023-10-31T11:13:03;11.30;1.00
4813;DHT22;2420;51.202;8.698;2023-10-31T11:15:29;11.40;1.00
4813;DHT22;2420;51.202;8.698;2023-10-31T11:17:56;11.40;1.00
4813;DHT22;2420;51.202;8.698;2023-10-31T11:20:22;11.30;1.00
4813;DHT22;2420;51.202;8.698;2023-10-31T11:22:55;11.30;1.00
4813;DHT22;2420;51.202;8.698;2023-10-31T11:25:23;11.40;1.00
4813;DHT22;2420;51.202;8.698;2023-10-31T11:27:58;11.40;1.00
4813;DHT22;2420;51.202;8.698;2023-10-31T11:30:35;11.40;1.00
4813;DHT22;2420;51.202;8.698;2023-10-31T11:33:02;11.50;1.00
4813;DHT22;2420;51.202;8.698;2023-10-31T11:35:33;11.60;1.00
4813;DHT22;2420;51.202;8.698;2023-10-31T11:38:08;11.60;1.00
4813;DHT22;2420;51.202;8.698;2023-10-31T11:40:58;11.60;1.00
4813;DHT22;2420;51.202;8.698;2023-10-31T11:43:25;11.60;1.00
4813;DHT22;2420;51.202;8.698;2023-10-31T11:45:52;11.50;1.00
4813;DHT22;2420;51.202;8.698;2023-10-31T11:48:47;11.50;1.00
4813;DHT22;2420;51.202;8.698;2023-10-31T11:51:13;11.30;1.00
4813;DHT22;2420;51.202;8.698;2023-10-31T11:53:39;11.30;1.00
4813;DHT22;2420;51.202;8.698;2023-10-31T11:56:05;11.20;1.00
4813;DHT22;2420;51.202;8.698;2023-10-31T11:58:31;11.20;1.00
4813;DHT22;2420;51.202;8.698;2023-10-31T12:01:04;11.30;1.00
4813;DHT22;2420;51.202;8.698;2023-10-31T12:03:42;11.20;1.00
4813;DHT22;2420;51.202;8.698;2023-10-31T12:06:09;11.10;1.00
4813;DHT22;2420;51.202;8.698;2023-10-31T12:08:42;11.10;1.00
4813;DHT22;2420;51.202;8.698;2023-10-31T12:13:41;11.20;1.00
4813;DHT22;2420;51.202;8.698;2023-10-31T12:16:08;11.30;1.00
4813;DHT22;2420;51.202;8.698;2023-10-31T12:18:35;11.30;1.00
4813;DHT22;2420;51.202;8.698;2023-10-31T12:21:01;11.40;1.00
4813;DHT22;2420;51.202;8.698;2023-10-31T12:23:27;11.40;1.00
4813;DHT22;2420;51.202;8.698;2023-10-31T12:25:54;11.40;1.00
4813;DHT22;2420;51.202;8.698;2023-10-31T12:28:24;11.40;1.00
4813;DHT22;2420;51.202;8.698;2023-10-31T12:30:52;11.40;1.00
4813;DHT22;2420;51.202;8.698;2023-10-31T12:33:22;11.50;1.00
4813;DHT22;2420;51.202;8.698;2023-10-31T12:35:52;11.70;1.00
4813;DHT22;2420;51.202;8.698;2023-10-31T12:38:21;11.70;1.00
4813;DHT22;2420;51.202;8.698;2023-10-31T12:40:47;11.40;1.00
4813;DHT22;2420;51.202;8.698;2023-10-31T12:43:15;11.30;1.00
4813;DHT22;2420;51.202;8.698;2023-10-31T12:45:41;11.30;1.00
4813;DHT22;2420;51.202;8.698;2023-10-31T12:48:08;11.20;1.00
4813;DHT22;2420;51.202;8.698;2023-10-31T12:50:36;11.10;1.00
4813;DHT22;2420;51.202;8.698;2023-10-31T12:53:03;11.10;1.00
4813;DHT22;2420;51.202;8.698;2023-10-31T12:55:30;11.20;1.00
4813;DHT22;2420;51.202;8.698;2023-10-31T12:57:59;11.30;1.00
4813;DHT22;2420;51.202;8.698;2023-10-31T13:00:31;11.30;1.00
4813;DHT22;2420;51.202;8.698;2023-10-31T13:03:05;11.40;1.00
4813;DHT22;2420;51.202;8.698;2023-10-31T13:05:31;11.50;1.00
4813;DHT22;2420;51.202;8.698;2023-10-31T13:07:58;11.40;1.00
4813;DHT22;2420;51.202;8.698;2023-10-31T13:10:26;11.50;1.00
4813;DHT22;2420;51.202;8.698;2023-10-31T13:12:52;11.30;1.00
4813;DHT22;2420;51.202;8.698;2023-10-31T13:15:20;11.20;1.00
4813;DHT22;2420;51.202;8.698;2023-10-31T13:17:46;11.10;1.00
4813;DHT22;2420;51.202;8.698;2023-10-31T13:20:14;11.10;1.00
4813;DHT22;2420;51.202;8.698;2023-10-31T13:22:41;11.00;1.00
4813;DHT22;2420;51.202;8.698;2023-10-31T13:25:08;11.00;1.00
4813;DHT22;2420;51.202;8.698;2023-10-31T13:27:39;11.00;1.00
4813;DHT22;2420;51.202;8.698;2023-10-31T13:30:11;11.10;1.00
4813;DHT22;2420;51.202;8.698;2023-10-31T13:32:38;11.10;1.00
4813;DHT22;2420;51.202;8.698;2023-10-31T13:35:05;11.20;1.00
4813;DHT22;2420;51.202;8.698;2023-10-31T13:37:30;11.20;1.00
4813;DHT22;2420;51.202;8.698;2023-10-31T13:39:56;11.10;1.00
4813;DHT22;2420;51.202;8.698;2023-10-31T13:42:22;11.00;1.00
4813;DHT22;2420;51.202;8.698;2023-10-31T13:44:47;11.00;1.00
4813;DHT22;2420;51.202;8.698;2023-10-31T13:47:14;11.00;1.00
4813;DHT22;2420;51.202;8.698;2023-10-31T13:49:39;11.00;1.00
4813;DHT22;2420;51.202;8.698;2023-10-31T13:52:05;11.10;1.00
4813;DHT22;2420;51.202;8.698;2023-10-31T13:54:32;11.30;1.00
4813;DHT22;2420;51.202;8.698;2023-10-31T13:56:57;11.40;1.00
4813;DHT22;2420;51.202;8.698;2023-10-31T13:59:24;11.50;1.00
4813;DHT22;2420;51.202;8.698;2023-10-31T14:01:49;11.40;1.00
4813;DHT22;2420;51.202;8.698;2023-10-31T14:04:15;11.50;1.00
4813;DHT22;2420;51.202;8.698;2023-10-31T14:06:42;11.50;1.00
4813;DHT22;2420;51.202;8.698;2023-10-31T14:09:09;11.60;1.00
4813;DHT22;2420;51.202;8.698;2023-10-31T14:11:35;11.70;1.00
4813;DHT22;2420;51.202;8.698;2023-10-31T14:14:02;11.70;1.00
4813;DHT22;2420;51.202;8.698;2023-10-31T14:16:34;11.70;1.00
4813;DHT22;2420;51.202;8.698;2023-10-31T14:19:00;11.70;1.00
4813;DHT22;2420;51.202;8.698;2023-10-31T14:21:27;11.70;1.00
4813;DHT22;2420;51.202;8.698;2023-10-31T14:23:53;11.70;1.00
4813;DHT22;2420;51.202;8.698;2023-10-31T14:26:20;11.70;1.00
4813;DHT22;2420;51.202;8.698;2023-10-31T14:28:45;11.70;1.00
4813;DHT22;2420;51.202;8.698;2023-10-31T14:31:11;11.70;1.00
4813;DHT22;2420;51.202;8.698;2023-10-31T14:33:36;11.70;1.00
4813;DHT22;2420;51.202;8.698;2023-10-31T14:36:02;11.60;1.00
4813;DHT22;2420;51.202;8.698;2023-10-31T14:38:28;11.50;1.00
4813;DHT22;2420;51.202;8.698;2023-10-31T14:40:53;11.60;1.00
4813;DHT22;2420;51.202;8.698;2023-10-31T14:43:19;11.50;1.00
4813;DHT22;2420;51.202;8.698;2023-10-31T14:45:45;11.40;1.00
4813;DHT22;2420;51.202;8.698;2023-10-31T14:48:10;11.30;1.00
4813;DHT22;2420;51.202;8.698;2023-10-31T14:50:36;11.30;1.00
4813;DHT22;2420;51.202;8.698;2023-10-31T14:53:01;11.20;1.00
4813;DHT22;2420;51.202;8.698;2023-10-31T14:55:27;11.30;1.00
4813;DHT22;2420;51.202;8.698;2023-10-31T14:57:53;11.40;1.00
4813;DHT22;2420;51.202;8.698;2023-10-31T15:00:18;11.40;1.00
4813;DHT22;2420;51.202;8.698;2023-10-31T15:02:44;11.40;1.00
4813;DHT22;2420;51.202;8.698;2023-10-31T15:05:09;11.30;1.00
4813;DHT22;2420;51.202;8.698;2023-10-31T15:07:35;11.20;1.00
4813;DHT22;2420;51.202;8.698;2023-10-31T15:10:01;11.10;1.00
4813;DHT22;2420;51.202;8.698;2023-10-31T15:12:28;11.10;1.00
4813;DHT22;2420;51.202;8.698;2023-10-31T15:14:54;11.00;1.00
4813;DHT22;2420;51.202;8.698;2023-10-31T15:17:20;10.90;1.00
4813;DHT22;2420;51.202;8.698;2023-10-31T15:19:46;10.90;1.00
4813;DHT22;2420;51.202;8.698;2023-10-31T15:22:11;10.90;1.00
4813;DHT22;2420;51.202;8.698;2023-10-31T15:24:37;10.80;1.00
4813;DHT22;2420;51.202;8.698;2023-10-31T15:27:03;10.80;1.00
4813;DHT22;2420;51.202;8.698;2023-10-31T15:29:28;10.70;1.00
4813;DHT22;2420;51.202;8.698;2023-10-31T15:31:54;10.60;1.00
4813;DHT22;2420;51.202;8.698;2023-10-31T15:34:21;10.60;1.00
4813;DHT22;2420;51.202;8.698;2023-10-31T15:36:46;10.50;1.00
4813;DHT22;2420;51.202;8.698;2023-10-31T15:39:12;10.40;1.00
4813;DHT22;2420;51.202;8.698;2023-10-31T15:41:38;10.30;1.00
4813;DHT22;2420;51.202;8.698;2023-10-31T15:44:04;10.20;1.00
4813;DHT22;2420;51.202;8.698;2023-10-31T15:46:29;10.20;1.00
4813;DHT22;2420;51.202;8.698;2023-10-31T15:48:55;10.20;1.00
4813;DHT22;2420;51.202;8.698;2023-10-31T15:51:21;10.10;1.00
4813;DHT22;2420;51.202;8.698;2023-10-31T15:53:46;10.20;1.00
4813;DHT22;2420;51.202;8.698;2023-10-31T15:56:12;10.10;1.00
4813;DHT22;2420;51.202;8.698;2023-10-31T15:58:38;10.00;1.00
4813;DHT22;2420;51.202;8.698;2023-10-31T16:01:04;10.00;1.00
4813;DHT22;2420;51.202;8.698;2023-10-31T16:03:30;10.00;1.00
4813;DHT22;2420;51.202;8.698;2023-10-31T16:05:55;10.00;1.00
4813;DHT22;2420;51.202;8.698;2023-10-31T16:08:21;9.90;1.00
4813;DHT22;2420;51.202;8.698;2023-10-31T16:10:47;9.80;1.00
4813;DHT22;2420;51.202;8.698;2023-10-31T16:13:14;9.80;1.00
4813;DHT22;2420;51.202;8.698;2023-10-31T16:15:40;9.80;1.00
4813;DHT22;2420;51.202;8.698;2023-10-31T16:18:05;9.70;1.00
4813;DHT22;2420;51.202;8.698;2023-10-31T16:20:32;9.70;1.00
4813;DHT22;2420;51.202;8.698;2023-10-31T16:23:00;9.60;1.00